Time;durP1;ratioP1;P1;durP2;ratioP2;P2;SDS_P1;SDS_P2;PMS_P1;PMS_P2;Temp;Humidity;BMP_temperature;BMP_pressure;BME280_temperature;BME280_humidity;BME280_pressure;Samples;Min_cycle;Max_cycle;Signal;HPM_P1;HPM_P2
2022/06/24 00:00:06;;;;;;;14.30;8.45;;;15.50;96.50;;;;;;4971872;28;20035;-50
2022/06/24 00:02:32;;;;;;;14.85;9.10;;;15.60;96.50;;;;;;4972311;28;20109;-55
2022/06/24 00:05:01;;;;;;;13.57;8.52;;;15.50;96.50;;;;;;4972317;28;20035;-47
2022/06/24 00:07:26;;;;;;;13.30;7.73;;;15.60;96.50;;;;;;4972460;28;20415;-59
2022/06/24 00:09:52;;;;;;;14.32;7.63;;;15.60;96.30;;;;;;4972425;28;20058;-59
2022/06/24 00:12:20;;;;;;;12.98;7.80;;;15.60;96.20;;;;;;4972153;28;20435;-58
2022/06/24 00:14:58;;;;;;;11.57;7.97;;;15.50;96.20;;;;;;4972085;28;20043;-60
2022/06/24 00:17:27;;;;;;;12.07;7.93;;;15.50;96.30;;;;;;4972201;28;20027;-58
2022/06/24 00:19:57;;;;;;;12.40;7.50;;;15.40;96.50;;;;;;4972181;28;20038;-56
2022/06/24 00:22:25;;;;;;;10.75;7.68;;;15.40;96.50;;;;;;4971354;28;20118;-50
2022/06/24 00:25:11;;;;;;;9.77;6.97;;;15.40;96.40;;;;;;4972034;28;20018;-56
2022/06/24 00:27:38;;;;;;;13.65;7.38;;;15.30;96.40;;;;;;4972348;28;20076;-51
2022/06/24 00:30:22;;;;;;;11.75;7.28;;;15.30;96.50;;;;;;4973456;28;20205;-57
2022/06/24 00:32:48;;;;;;;9.70;7.13;;;15.20;96.40;;;;;;4974427;28;20038;-53
2022/06/24 00:35:18;;;;;;;13.18;7.75;;;15.10;96.50;;;;;;4975862;28;20039;-55
2022/06/24 00:37:45;;;;;;;12.25;7.97;;;15.00;96.70;;;;;;4975686;28;20022;-52
2022/06/24 00:40:11;;;;;;;10.85;8.20;;;15.00;97.00;;;;;;4975631;28;20023;-53
2022/06/24 00:42:47;;;;;;;14.48;8.85;;;15.00;97.30;;;;;;4975664;28;20027;-43
2022/06/24 00:45:38;;;;;;;11.25;8.02;;;15.00;97.40;;;;;;4975836;28;20035;-50
2022/06/24 00:48:15;;;;;;;16.30;9.30;;;15.00;97.40;;;;;;4975564;28;20125;-54
2022/06/24 00:50:46;;;;;;;13.85;9.50;;;14.90;97.60;;;;;;4975428;28;20019;-56
2022/06/24 00:53:13;;;;;;;13.18;8.48;;;14.90;97.80;;;;;;4975675;28;20035;-49
2022/06/24 00:55:41;;;;;;;14.40;9.40;;;15.00;98.20;;;;;;4975528;28;20569;-44
2022/06/24 00:58:20;;;;;;;15.05;9.45;;;15.00;98.40;;;;;;4975420;28;20031;-55
2022/06/24 01:00:49;;;;;;;14.00;9.02;;;15.00;98.30;;;;;;4975113;28;20022;-54
2022/06/24 01:03:15;;;;;;;13.70;9.50;;;15.00;98.10;;;;;;4975581;28;20039;-54
2022/06/24 01:05:42;;;;;;;10.73;8.05;;;14.90;97.80;;;;;;4975257;28;20030;-56
2022/06/24 01:08:13;;;;;;;12.45;7.95;;;14.90;98.10;;;;;;4975182;28;20023;-50
2022/06/24 01:10:40;;;;;;;14.13;8.85;;;14.90;98.20;;;;;;4975042;28;20045;-59
2022/06/24 01:13:10;;;;;;;13.35;8.95;;;14.80;98.00;;;;;;4993701;28;20030;-52
2022/06/24 01:15:37;;;;;;;15.63;9.73;;;14.80;98.30;;;;;;4994104;28;20034;-59
2022/06/24 01:18:03;;;;;;;20.00;11.70;;;14.70;98.70;;;;;;4994365;28;20100;-58
2022/06/24 01:20:29;;;;;;;15.25;10.85;;;14.70;99.20;;;;;;4991507;28;20043;-59
2022/06/24 01:22:55;;;;;;;19.15;11.88;;;14.70;99.40;;;;;;4988749;28;20070;-54
2022/06/24 01:25:20;;;;;;;17.83;12.15;;;14.70;99.30;;;;;;4994423;28;20057;-54
2022/06/24 01:27:46;;;;;;;16.75;11.65;;;14.70;99.40;;;;;;4994323;28;20034;-53
2022/06/24 01:30:12;;;;;;;19.10;12.05;;;14.80;99.60;;;;;;4983130;28;20027;-48
2022/06/24 01:32:38;;;;;;;16.45;11.60;;;14.70;99.40;;;;;;4974592;28;20739;-58
2022/06/24 01:35:04;;;;;;;16.70;11.65;;;14.70;99.50;;;;;;4974651;28;20513;-50
2022/06/24 01:37:29;;;;;;;17.60;11.90;;;14.70;99.70;;;;;;4974751;28;20026;-57
2022/06/24 01:39:55;;;;;;;18.85;12.57;;;14.80;99.90;;;;;;4974723;28;20500;-42
2022/06/24 01:42:21;;;;;;;16.85;11.43;;;14.80;99.90;;;;;;4973787;28;20051;-54
2022/06/24 01:44:46;;;;;;;15.70;11.80;;;14.90;99.90;;;;;;4974625;28;20057;-59
2022/06/24 01:47:12;;;;;;;19.48;12.25;;;15.00;99.90;;;;;;4974669;28;20057;-53
2022/06/24 01:49:38;;;;;;;17.63;11.68;;;15.00;99.90;;;;;;4956978;28;20066;-59
2022/06/24 01:52:04;;;;;;;18.95;12.27;;;15.00;99.70;;;;;;4974340;28;20501;-47
2022/06/24 01:54:30;;;;;;;17.85;12.18;;;15.10;99.60;;;;;;4974188;28;20042;-58
2022/06/24 01:56:56;;;;;;;19.98;11.73;;;15.10;99.30;;;;;;4957102;28;20030;-58
2022/06/24 01:59:21;;;;;;;18.08;12.02;;;15.20;99.20;;;;;;4974472;28;20470;-58
2022/06/24 02:01:47;;;;;;;16.17;10.90;;;15.20;99.00;;;;;;4974163;28;20081;-55
2022/06/24 02:04:14;;;;;;;14.98;11.07;;;15.10;98.90;;;;;;4974539;28;20041;-57
2022/06/24 02:06:39;;;;;;;17.48;11.93;;;15.10;98.80;;;;;;4974203;28;20462;-60
2022/06/24 02:09:06;;;;;;;16.92;12.23;;;15.10;99.00;;;;;;4974388;28;20054;-56
2022/06/24 02:14:18;;;;;;;21.73;13.70;;;15.10;98.70;;;;;;4974198;28;20081;-59
2022/06/24 02:16:44;;;;;;;17.23;12.30;;;15.10;98.80;;;;;;4974029;28;20034;-59
2022/06/24 02:19:09;;;;;;;16.30;12.52;;;15.10;99.00;;;;;;4974034;28;20019;-59
2022/06/24 02:21:36;;;;;;;19.85;13.00;;;15.10;98.80;;;;;;4973400;28;20097;-51
2022/06/24 02:24:02;;;;;;;20.17;13.43;;;15.10;99.10;;;;;;4973960;28;20027;-55
2022/06/24 02:26:28;;;;;;;17.27;12.27;;;15.00;99.20;;;;;;4973758;28;20027;-60
2022/06/24 02:28:54;;;;;;;20.13;11.95;;;14.90;99.20;;;;;;4973533;28;20493;-59
2022/06/24 02:31:20;;;;;;;20.40;12.38;;;14.90;99.00;;;;;;4972753;28;20027;-52
2022/06/24 02:33:46;;;;;;;14.25;10.40;;;14.80;98.90;;;;;;4973498;28;20592;-49
2022/06/24 02:36:12;;;;;;;16.50;11.32;;;14.70;98.90;;;;;;4973361;28;20126;-48
2022/06/24 02:38:38;;;;;;;20.02;11.55;;;14.70;99.00;;;;;;4973496;28;20026;-53
2022/06/24 02:41:04;;;;;;;17.73;11.88;;;14.70;99.00;;;;;;4973250;28;20026;-46
2022/06/24 02:43:34;;;;;;;16.75;11.65;;;14.60;99.00;;;;;;4973612;28;20019;-41
2022/06/24 02:46:10;;;;;;;19.70;11.88;;;14.70;99.30;;;;;;4973258;28;20027;-47
2022/06/24 02:48:37;;;;;;;18.50;12.10;;;14.70;99.40;;;;;;4973010;28;20026;-44
2022/06/24 02:51:05;;;;;;;19.90;13.20;;;14.70;99.40;;;;;;4973070;28;20030;-53
2022/06/24 02:53:32;;;;;;;17.42;12.45;;;14.70;99.60;;;;;;4972490;28;20018;-45
2022/06/24 02:56:06;;;;;;;20.13;12.20;;;14.60;99.80;;;;;;4973188;28;20047;-54
2022/06/24 02:58:33;;;;;;;17.55;11.63;;;14.60;99.70;;;;;;4966006;28;20031;-45
2022/06/24 03:01:00;;;;;;;18.55;10.77;;;14.40;99.60;;;;;;4973275;28;20034;-41
2022/06/24 03:03:27;;;;;;;15.98;10.85;;;14.30;99.60;;;;;;4973010;28;20097;-41
2022/06/24 03:05:53;;;;;;;19.05;10.73;;;14.30;99.80;;;;;;4973269;28;20473;-42
2022/06/24 03:08:22;;;;;;;16.48;11.32;;;14.20;99.90;;;;;;4972799;28;20030;-45
2022/06/24 03:10:49;;;;;;;16.83;11.82;;;14.20;99.90;;;;;;4973357;28;20019;-55
2022/06/24 03:13:15;;;;;;;18.63;12.20;;;14.20;99.90;;;;;;4972958;28;20031;-53
2022/06/24 03:15:43;;;;;;;18.73;12.38;;;14.20;99.90;;;;;;4972837;28;20054;-47
2022/06/24 03:18:10;;;;;;;20.92;13.10;;;14.20;99.90;;;;;;4972179;28;20027;-48
2022/06/24 03:20:35;;;;;;;18.75;13.30;;;14.20;99.90;;;;;;4972170;28;20033;-52
2022/06/24 03:23:01;;;;;;;21.30;13.30;;;14.30;99.90;;;;;;4972676;28;20129;-52
2022/06/24 03:25:27;;;;;;;18.45;13.23;;;14.30;99.90;;;;;;4972579;28;20117;-45
2022/06/24 03:27:53;;;;;;;23.90;15.57;;;14.30;99.90;;;;;;4972527;28;20101;-50
2022/06/24 03:30:19;;;;;;;20.20;13.95;;;14.40;99.90;;;;;;4971586;28;20458;-60
2022/06/24 03:32:44;;;;;;;21.05;13.50;;;14.40;99.90;;;;;;4972624;28;20026;-48
2022/06/24 03:35:10;;;;;;;18.52;12.73;;;14.40;99.90;;;;;;4972395;28;20066;-51
2022/06/24 03:37:36;;;;;;;17.75;13.10;;;14.50;99.90;;;;;;4972184;28;20019;-54
2022/06/24 03:40:03;;;;;;;17.50;12.40;;;14.50;99.90;;;;;;4972259;28;20058;-58
2022/06/24 03:42:28;;;;;;;20.15;12.80;;;14.50;99.90;;;;;;4972473;28;20393;-55
2022/06/24 03:44:54;;;;;;;20.55;12.57;;;14.50;99.90;;;;;;4972577;28;20029;-46
2022/06/24 03:47:20;;;;;;;16.38;12.52;;;14.50;99.90;;;;;;4972250;28;20059;-49
2022/06/24 03:49:46;;;;;;;15.43;12.45;;;14.50;99.90;;;;;;4971785;28;20027;-48
2022/06/24 03:52:12;;;;;;;17.55;12.18;;;14.50;99.90;;;;;;4972445;28;20430;-47
2022/06/24 03:54:38;;;;;;;18.25;12.35;;;14.50;99.90;;;;;;4972264;28;20030;-45
2022/06/24 03:57:04;;;;;;;18.05;12.38;;;14.60;99.90;;;;;;4972471;28;20026;-56
2022/06/24 03:59:30;;;;;;;16.83;12.32;;;14.50;99.90;;;;;;4971926;28;20031;-41
2022/06/24 04:01:56;;;;;;;20.38;12.80;;;14.50;99.90;;;;;;4972286;28;20301;-57
2022/06/24 04:04:22;;;;;;;19.38;11.82;;;14.50;99.90;;;;;;4971845;28;20078;-49
2022/06/24 04:06:47;;;;;;;18.17;13.63;;;14.50;99.90;;;;;;4972526;28;20058;-57
2022/06/24 04:09:13;;;;;;;17.40;11.52;;;14.50;99.90;;;;;;4972092;28;20030;-47
2022/06/24 04:11:39;;;;;;;16.83;11.50;;;14.50;99.90;;;;;;4972149;28;20073;-50
2022/06/24 04:14:05;;;;;;;16.88;11.95;;;14.50;99.90;;;;;;4972152;28;20026;-42
2022/06/24 04:16:31;;;;;;;17.20;11.80;;;14.50;99.90;;;;;;4971931;28;20405;-52
2022/06/24 04:18:56;;;;;;;18.27;11.45;;;14.50;99.90;;;;;;4971971;28;20023;-54
2022/06/24 04:21:22;;;;;;;17.38;11.35;;;14.50;99.90;;;;;;4971903;28;20054;-52
2022/06/24 04:23:49;;;;;;;15.25;10.40;;;14.50;99.90;;;;;;4972064;28;20050;-46
2022/06/24 04:26:15;;;;;;;16.33;9.90;;;14.50;99.90;;;;;;4971841;28;20041;-57
2022/06/24 04:28:41;;;;;;;13.25;9.90;;;14.50;99.90;;;;;;4971849;28;20062;-46
2022/06/24 04:31:07;;;;;;;15.00;10.25;;;14.50;99.90;;;;;;4972078;28;20105;-54
2022/06/24 04:33:33;;;;;;;17.27;10.43;;;14.40;99.90;;;;;;4972055;28;20026;-52
2022/06/24 04:35:59;;;;;;;16.73;9.95;;;14.40;99.90;;;;;;4971944;28;20185;-55
2022/06/24 04:38:25;;;;;;;14.75;10.15;;;14.40;99.90;;;;;;4971816;28;20027;-52
2022/06/24 04:40:50;;;;;;;17.05;10.23;;;14.30;99.90;;;;;;4972016;28;20056;-57
2022/06/24 04:43:16;;;;;;;13.13;9.13;;;14.30;99.90;;;;;;4971902;28;20046;-53
2022/06/24 04:45:44;;;;;;;13.23;9.88;;;14.30;99.90;;;;;;4971394;28;20035;-55
2022/06/24 04:48:09;;;;;;;15.88;10.48;;;14.30;99.90;;;;;;4972079;28;20035;-51
2022/06/24 04:50:35;;;;;;;16.73;11.32;;;14.40;99.90;;;;;;4971740;28;20362;-53
2022/06/24 04:53:01;;;;;;;16.73;10.63;;;14.30;99.90;;;;;;4971840;28;20113;-54
2022/06/24 04:55:26;;;;;;;14.77;10.35;;;14.30;99.90;;;;;;4971381;28;20066;-55
2022/06/24 04:57:52;;;;;;;15.18;10.57;;;14.30;99.90;;;;;;4971863;28;20046;-51
2022/06/24 05:00:18;;;;;;;13.98;10.30;;;14.40;99.90;;;;;;4971784;28;20026;-52
2022/06/24 05:02:44;;;;;;;16.98;10.43;;;14.30;99.90;;;;;;4971633;28;20035;-52
2022/06/24 05:05:11;;;;;;;17.08;11.07;;;14.40;99.90;;;;;;4971583;28;20033;-50
2022/06/24 05:07:37;;;;;;;15.10;9.85;;;14.40;99.90;;;;;;4971585;28;20493;-52
2022/06/24 05:10:03;;;;;;;14.55;9.90;;;14.50;99.90;;;;;;4953878;28;20034;-59
2022/06/24 05:12:29;;;;;;;15.65;10.25;;;14.60;99.90;;;;;;4970887;28;20039;-51
2022/06/24 05:14:55;;;;;;;13.68;9.75;;;14.80;99.90;;;;;;4970696;28;20045;-60
2022/06/24 05:17:21;;;;;;;16.40;9.95;;;14.80;99.50;;;;;;4972738;28;20027;-54
2022/06/24 05:19:47;;;;;;;16.08;10.23;;;14.90;99.40;;;;;;4973963;28;20105;-56
2022/06/24 05:22:12;;;;;;;15.00;9.60;;;14.90;99.20;;;;;;4974307;28;20039;-54
2022/06/24 05:24:38;;;;;;;14.75;10.00;;;14.90;98.90;;;;;;4974202;28;20037;-57
2022/06/24 05:27:04;;;;;;;14.98;9.88;;;14.90;99.30;;;;;;4974562;28;20026;-53
2022/06/24 05:29:30;;;;;;;13.02;9.20;;;15.00;99.50;;;;;;4974669;28;20031;-49
2022/06/24 05:31:55;;;;;;;14.57;9.80;;;15.20;99.60;;;;;;4974685;28;20026;-50
2022/06/24 05:34:21;;;;;;;16.50;9.48;;;15.40;99.20;;;;;;4974895;28;20023;-44
2022/06/24 05:36:47;;;;;;;14.85;10.15;;;15.60;99.30;;;;;;4974542;28;20465;-57
2022/06/24 05:39:13;;;;;;;16.65;9.43;;;15.90;98.70;;;;;;4974554;28;20486;-51
2022/06/24 05:41:41;;;;;;;13.70;8.48;;;16.10;97.90;;;;;;4974775;28;20113;-57
2022/06/24 05:44:07;;;;;;;11.55;7.90;;;16.40;97.00;;;;;;4974585;28;20018;-53
2022/06/24 05:46:33;;;;;;;11.35;7.10;;;16.70;96.40;;;;;;4974478;28;20042;-50
2022/06/24 05:48:58;;;;;;;10.68;6.78;;;16.90;95.50;;;;;;4974694;28;20026;-56
2022/06/24 05:51:24;;;;;;;9.77;6.78;;;17.10;94.50;;;;;;4974334;28;20406;-54
2022/06/24 05:56:35;;;;;;;9.18;6.13;;;18.00;94.10;;;;;;4973896;28;20053;-50
2022/06/24 05:59:01;;;;;;;12.32;6.07;;;18.20;92.60;;;;;;4970572;28;20027;-53
2022/06/24 06:01:27;;;;;;;10.23;5.97;;;18.00;92.90;;;;;;4971253;28;20027;-60
2022/06/24 06:03:53;;;;;;;7.18;4.75;;;17.90;93.40;;;;;;4971823;28;20385;-49
2022/06/24 06:06:19;;;;;;;7.32;4.70;;;17.80;92.90;;;;;;4969648;28;20476;-52
2022/06/24 06:08:46;;;;;;;7.93;4.63;;;17.60;93.60;;;;;;4972978;28;20118;-52
2022/06/24 06:11:15;;;;;;;6.90;4.53;;;17.40;94.00;;;;;;4974002;28;20098;-58
2022/06/24 06:13:42;;;;;;;7.82;4.97;;;17.30;94.20;;;;;;4974182;28;20086;-59
2022/06/24 06:16:08;;;;;;;7.30;5.00;;;17.20;94.40;;;;;;4973258;28;20031;-53
2022/06/24 06:18:34;;;;;;;9.27;4.72;;;17.10;94.40;;;;;;4972135;28;20023;-52
2022/06/24 06:21:05;;;;;;;8.05;4.32;;;17.10;94.90;;;;;;4971750;28;20019;-52
2022/06/24 06:23:31;;;;;;;9.45;4.57;;;17.10;94.40;;;;;;4971880;28;20128;-49
2022/06/24 06:25:58;;;;;;;8.25;4.35;;;17.10;95.10;;;;;;4970354;28;20117;-47
2022/06/24 06:28:24;;;;;;;7.90;4.47;;;17.20;95.30;;;;;;4971477;28;20044;-46
2022/06/24 06:30:50;;;;;;;6.97;4.90;;;17.30;94.60;;;;;;4971615;28;20018;-53
2022/06/24 06:33:15;;;;;;;7.22;4.70;;;17.40;94.80;;;;;;4968651;28;20034;-46
2022/06/24 06:35:41;;;;;;;7.93;4.30;;;17.70;95.60;;;;;;4973503;28;20034;-56
2022/06/24 06:38:07;;;;;;;9.70;4.43;;;18.10;93.40;;;;;;4973218;28;20026;-61
2022/06/24 06:40:37;;;;;;;7.88;3.90;;;18.70;93.40;;;;;;4980569;28;20031;-59
2022/06/24 06:43:05;;;;;;;6.55;4.00;;;19.60;91.30;;;;;;4973424;28;20031;-51
2022/06/24 06:45:34;;;;;;;7.65;3.88;;;20.70;90.90;;;;;;4973316;28;20034;-59
2022/06/24 06:48:00;;;;;;;7.13;3.70;;;21.80;86.10;;;;;;4973402;28;20038;-46
2022/06/24 06:50:26;;;;;;;7.30;3.83;;;22.90;81.60;;;;;;4972644;28;20030;-50
2022/06/24 06:52:52;;;;;;;6.45;3.78;;;23.90;79.60;;;;;;4971680;28;20413;-52
2022/06/24 06:55:18;;;;;;;6.20;3.50;;;24.40;72.90;;;;;;4972165;28;20493;-50
2022/06/24 06:57:44;;;;;;;7.43;3.45;;;24.20;71.80;;;;;;4964785;28;20030;-47
2022/06/24 07:00:10;;;;;;;7.93;3.67;;;23.90;72.60;;;;;;4972309;28;20018;-54
2022/06/24 07:02:37;;;;;;;6.68;3.30;;;24.30;72.90;;;;;;4972430;28;20544;-51
2022/06/24 07:05:03;;;;;;;8.18;4.43;;;24.40;71.10;;;;;;4945724;28;20086;-59
2022/06/24 07:07:29;;;;;;;7.05;3.10;;;24.00;70.50;;;;;;4968555;28;20049;-49
2022/06/24 07:09:54;;;;;;;6.50;3.67;;;24.00;72.30;;;;;;4972828;28;20015;-48
2022/06/24 07:12:21;;;;;;;6.20;3.47;;;24.30;72.10;;;;;;4972600;28;20031;-57
2022/06/24 07:14:47;;;;;;;5.25;3.50;;;24.00;71.20;;;;;;4972089;28;20049;-59
2022/06/24 07:17:12;;;;;;;8.10;3.10;;;23.40;72.00;;;;;;4972091;28;20110;-51
2022/06/24 07:19:38;;;;;;;5.30;3.20;;;23.20;76.00;;;;;;4972068;28;20019;-54
2022/06/24 07:22:04;;;;;;;8.10;3.10;;;23.40;74.70;;;;;;4971757;28;20114;-53
2022/06/24 07:24:30;;;;;;;7.43;3.38;;;23.30;73.80;;;;;;4972712;28;20031;-43
2022/06/24 07:26:55;;;;;;;5.38;3.03;;;23.60;72.90;;;;;;4972455;28;20097;-53
2022/06/24 07:29:21;;;;;;;5.22;2.90;;;23.70;70.20;;;;;;4972670;28;20037;-47
2022/06/24 07:31:47;;;;;;;6.78;2.97;;;24.00;70.60;;;;;;4972681;28;20054;-48
2022/06/24 07:34:16;;;;;;;5.60;2.60;;;24.20;69.80;;;;;;4972632;28;20022;-45
2022/06/24 07:36:42;;;;;;;;;;;24.80;70.20;;;;;;4972789;28;20077;-41
2022/06/24 07:39:08;;;;;;;6.53;2.95;;;25.20;66.70;;;;;;4971857;28;19945;-45
2022/06/24 07:41:34;;;;;;;6.60;2.75;;;24.90;67.10;;;;;;4972295;28;20134;-41
2022/06/24 07:44:00;;;;;;;9.07;2.58;;;24.20;69.30;;;;;;4972325;28;20529;-41
2022/06/24 07:46:26;;;;;;;3.95;2.42;;;23.40;69.80;;;;;;4971874;28;20385;-43
2022/06/24 07:48:52;;;;;;;5.03;2.97;;;22.60;73.00;;;;;;4971864;28;20401;-42
2022/06/24 07:51:19;;;;;;;4.30;2.83;;;22.00;73.60;;;;;;4972078;28;20085;-42
2022/06/24 07:53:46;;;;;;;5.47;2.80;;;21.20;78.10;;;;;;4971878;28;20101;-41
2022/06/24 07:58:56;;;;;;;5.55;2.83;;;20.40;82.20;;;;;;4972455;28;20393;-49
2022/06/24 08:01:22;;;;;;;5.22;2.80;;;20.20;84.30;;;;;;4972138;28;20109;-55
2022/06/24 08:03:47;;;;;;;6.32;3.03;;;20.10;84.70;;;;;;4972040;28;20027;-53
2022/06/24 08:06:13;;;;;;;6.60;3.33;;;20.10;86.20;;;;;;4971958;28;20102;-55
2022/06/24 08:08:39;;;;;;;6.53;2.72;;;20.00;85.60;;;;;;4954844;28;20065;-57
2022/06/24 08:11:05;;;;;;;6.40;3.35;;;19.90;87.20;;;;;;4972042;28;20027;-50
2022/06/24 08:13:30;;;;;;;5.63;2.75;;;19.90;85.30;;;;;;4971346;28;20031;-53
2022/06/24 08:15:57;;;;;;;4.28;2.80;;;20.00;86.70;;;;;;4971787;28;20151;-49
2022/06/24 08:18:23;;;;;;;6.03;3.03;;;20.10;88.70;;;;;;4972040;28;20019;-57
2022/06/24 08:20:48;;;;;;;6.45;2.95;;;20.30;85.00;;;;;;4951502;28;20031;-53
2022/06/24 08:23:15;;;;;;;6.15;2.72;;;20.70;86.30;;;;;;4971463;28;20182;-55
2022/06/24 08:25:41;;;;;;;9.23;2.88;;;21.30;85.00;;;;;;4972158;28;20026;-50
2022/06/24 08:28:07;;;;;;;6.10;3.10;;;21.70;80.90;;;;;;4971687;28;20023;-60
2022/06/24 08:30:32;;;;;;;5.70;3.00;;;21.60;78.20;;;;;;4971859;28;20162;-57
2022/06/24 08:32:58;;;;;;;4.97;2.95;;;21.20;79.30;;;;;;4971982;28;20516;-52
2022/06/24 08:35:24;;;;;;;5.30;2.83;;;21.10;81.50;;;;;;4971949;28;20120;-52
2022/06/24 08:37:49;;;;;;;8.57;2.75;;;21.00;82.50;;;;;;4971913;28;20054;-56
2022/06/24 08:40:17;;;;;;;4.93;2.35;;;20.80;82.00;;;;;;4971393;28;20037;-42
2022/06/24 08:42:44;;;;;;;7.47;2.80;;;20.80;82.90;;;;;;4954162;28;20390;-58
2022/06/24 08:45:13;;;;;;;5.60;2.50;;;20.80;84.60;;;;;;4970514;28;20085;-52
2022/06/24 08:47:39;;;;;;;5.43;2.70;;;20.60;84.40;;;;;;4971509;28;20035;-54
2022/06/24 08:50:08;;;;;;;4.70;2.60;;;20.40;84.40;;;;;;4971305;28;20101;-50
2022/06/24 08:52:35;;;;;;;5.85;2.75;;;20.40;86.40;;;;;;4975109;28;20033;-53
2022/06/24 08:55:04;;;;;;;6.88;2.63;;;20.30;83.90;;;;;;4974568;28;20210;-57
2022/06/24 08:57:31;;;;;;;4.38;2.55;;;20.20;84.00;;;;;;4974735;28;20045;-46
2022/06/24 08:59:57;;;;;;;4.88;2.92;;;20.30;87.60;;;;;;4975287;28;20061;-49
2022/06/24 09:02:22;;;;;;;5.25;2.63;;;20.30;84.20;;;;;;4975179;28;20066;-51
2022/06/24 09:04:48;;;;;;;5.65;2.42;;;20.30;83.60;;;;;;4975143;28;20042;-53
2022/06/24 09:07:23;;;;;;;3.85;2.65;;;20.40;84.60;;;;;;4975358;28;20027;-53
2022/06/24 09:09:59;;;;;;;4.82;2.80;;;20.30;83.90;;;;;;4975163;28;20022;-58
2022/06/24 09:12:28;;;;;;;4.90;2.35;;;20.60;84.60;;;;;;4974927;28;20482;-58
2022/06/24 09:14:54;;;;;;;6.47;2.60;;;21.00;81.20;;;;;;4975013;28;20402;-52
2022/06/24 09:17:30;;;;;;;5.32;2.67;;;21.00;83.10;;;;;;4973998;28;20022;-51
2022/06/24 09:20:19;;;;;;;5.53;2.65;;;21.60;81.00;;;;;;4963139;28;20043;-57
2022/06/24 09:22:46;;;;;;;4.22;2.70;;;22.30;83.10;;;;;;4974569;28;20042;-56
2022/06/24 09:25:12;;;;;;;5.18;3.00;;;23.50;76.30;;;;;;4983679;28;20031;-58
2022/06/24 09:27:46;;;;;;;5.70;2.75;;;23.60;73.20;;;;;;4974690;28;20110;-55
2022/06/24 09:30:14;;;;;;;5.30;2.63;;;23.40;72.60;;;;;;4974774;28;20029;-56
2022/06/24 09:32:53;;;;;;;4.18;2.28;;;23.90;78.20;;;;;;4975010;28;20124;-57
2022/06/24 09:35:21;;;;;;;5.75;2.38;;;24.40;73.80;;;;;;4974568;28;20097;-55
2022/06/24 09:37:48;;;;;;;5.38;2.47;;;23.80;71.50;;;;;;4974758;28;20027;-54
2022/06/24 09:40:19;;;;;;;4.50;2.25;;;23.30;71.70;;;;;;4974691;28;20057;-56
2022/06/24 09:43:01;;;;;;;4.93;2.72;;;22.60;75.00;;;;;;4974823;28;20081;-50
2022/06/24 09:45:42;;;;;;;5.63;2.72;;;22.00;77.20;;;;;;4974618;28;20070;-56
2022/06/24 09:48:08;;;;;;;6.60;2.90;;;21.60;79.10;;;;;;4974585;28;20482;-54
2022/06/24 09:50:35;;;;;;;5.43;3.13;;;21.50;79.90;;;;;;4974537;28;20043;-55
2022/06/24 09:53:02;;;;;;;6.18;2.78;;;21.70;80.70;;;;;;4974519;28;20023;-54
2022/06/24 09:55:30;;;;;;;7.47;2.90;;;21.70;81.40;;;;;;4974311;28;20035;-56
2022/06/24 09:57:59;;;;;;;4.63;2.60;;;22.30;82.10;;;;;;4974438;28;20078;-53
2022/06/24 10:00:40;;;;;;;5.63;2.63;;;22.70;78.70;;;;;;4974405;28;20127;-49
2022/06/24 10:03:09;;;;;;;4.95;2.90;;;22.90;78.10;;;;;;4973856;28;20035;-56
2022/06/24 10:05:39;;;;;;;6.20;3.20;;;23.00;75.20;;;;;;4974367;28;20034;-51
2022/06/24 10:08:06;;;;;;;4.05;2.83;;;22.90;75.60;;;;;;4974271;28;20380;-46
2022/06/24 10:10:35;;;;;;;4.20;3.13;;;22.90;77.00;;;;;;4974288;28;20030;-50
2022/06/24 10:13:03;;;;;;;;;;;22.80;77.80;;;;;;4974540;28;20032;-51
2022/06/24 10:15:30;;;;;;;7.47;4.13;;;22.50;77.00;;;;;;4974239;28;19922;-50
2022/06/24 10:17:56;;;;;;;6.93;4.00;;;22.00;78.60;;;;;;4973956;28;20292;-51
2022/06/24 10:20:23;;;;;;;6.57;4.68;;;21.50;80.50;;;;;;4973957;28;20041;-49
2022/06/24 10:22:54;;;;;;;8.35;4.82;;;21.20;81.80;;;;;;4973703;28;20058;-49
2022/06/24 10:25:48;;;;;;;6.88;4.47;;;20.70;82.30;;;;;;4974511;28;20461;-55
2022/06/24 10:28:14;;;;;;;7.65;4.10;;;20.90;85.10;;;;;;4973844;28;20501;-56
2022/06/24 10:30:39;;;;;;;8.70;4.82;;;20.90;84.60;;;;;;4973886;28;20478;-54
2022/06/24 10:33:20;;;;;;;7.50;5.38;;;20.70;83.60;;;;;;4973772;28;20114;-49
2022/06/24 10:36:02;;;;;;;8.88;4.90;;;20.40;85.40;;;;;;4973585;28;20050;-53
2022/06/24 10:38:42;;;;;;;7.15;4.45;;;20.10;87.50;;;;;;4973621;28;20367;-52
2022/06/24 10:41:11;;;;;;;6.38;4.50;;;20.00;89.30;;;;;;4973773;28;20022;-55
2022/06/24 10:43:43;;;;;;;6.00;3.75;;;20.10;89.50;;;;;;4973528;28;20027;-56
2022/06/24 10:46:11;;;;;;;9.50;4.57;;;20.40;89.60;;;;;;4973650;28;20023;-52
2022/06/24 10:48:43;;;;;;;6.47;4.13;;;20.60;87.30;;;;;;4973584;28;20034;-54
2022/06/24 10:51:17;;;;;;;8.43;4.00;;;20.60;86.90;;;;;;4973681;28;20027;-58
2022/06/24 10:54:01;;;;;;;5.97;3.60;;;20.90;89.30;;;;;;4973309;28;20038;-46
2022/06/24 10:56:53;;;;;;;7.10;3.40;;;21.30;87.70;;;;;;4973250;28;20038;-58
2022/06/24 10:59:20;;;;;;;6.18;2.80;;;21.50;83.90;;;;;;4969546;28;20035;-56
2022/06/24 11:01:50;;;;;;;5.88;3.13;;;21.50;85.60;;;;;;4973210;28;20051;-55
2022/06/24 11:04:27;;;;;;;4.30;2.70;;;21.70;85.40;;;;;;4972935;28;20034;-55
2022/06/24 11:07:13;;;;;;;4.80;2.80;;;21.70;84.20;;;;;;4973172;28;20118;-54
2022/06/24 11:09:39;;;;;;;5.75;3.72;;;22.10;85.10;;;;;;4973246;28;20022;-56
2022/06/24 11:12:25;;;;;;;5.20;3.10;;;22.20;81.40;;;;;;4973020;28;20030;-57
2022/06/24 11:14:51;;;;;;;5.50;2.85;;;22.70;83.20;;;;;;4972068;28;20073;-58
2022/06/24 11:17:16;;;;;;;4.68;2.80;;;23.00;79.70;;;;;;4972998;28;20051;-52
2022/06/24 11:19:42;;;;;;;4.40;2.60;;;23.20;81.20;;;;;;4972905;28;20304;-58
2022/06/24 11:22:08;;;;;;;6.72;2.70;;;23.10;76.30;;;;;;4972863;28;20050;-49
2022/06/24 11:24:36;;;;;;;6.07;3.58;;;23.00;78.40;;;;;;4972867;28;20022;-58
2022/06/24 11:27:07;;;;;;;7.07;3.30;;;22.50;78.20;;;;;;4972770;28;20089;-50
2022/06/24 11:29:56;;;;;;;5.43;3.20;;;22.50;84.00;;;;;;4972689;28;20065;-53
2022/06/24 11:32:23;;;;;;;4.53;2.30;;;23.40;79.20;;;;;;4960366;28;20011;-53
2022/06/24 11:34:49;;;;;;;3.88;2.28;;;24.00;78.40;;;;;;4972781;28;20031;-53
2022/06/24 11:37:22;;;;;;;4.30;2.20;;;24.00;73.20;;;;;;4972600;28;20077;-54
2022/06/24 11:39:51;;;;;;;5.13;2.35;;;24.60;72.90;;;;;;4972638;28;20058;-54
2022/06/24 11:42:16;;;;;;;;;;;24.50;72.00;;;;;;4972854;28;20545;-56
2022/06/24 11:44:42;;;;;;;5.53;2.33;;;24.40;73.40;;;;;;4972564;28;19910;-51
2022/06/24 11:47:08;;;;;;;3.78;1.90;;;24.20;70.80;;;;;;4972407;28;20062;-48
2022/06/24 11:49:35;;;;;;;5.03;2.00;;;23.70;71.80;;;;;;4971173;28;20033;-45
2022/06/24 11:52:01;;;;;;;5.43;2.33;;;23.60;76.40;;;;;;4971225;28;20090;-57
2022/06/24 11:54:31;;;;;;;3.97;2.22;;;24.10;74.70;;;;;;4970790;28;20033;-53
2022/06/24 11:56:58;;;;;;;6.32;2.40;;;24.60;73.80;;;;;;4970882;28;20263;-41
2022/06/24 11:59:26;;;;;;;3.75;1.80;;;24.60;72.70;;;;;;4971756;28;20085;-47
2022/06/24 12:01:53;;;;;;;2.72;1.60;;;24.40;71.10;;;;;;4972608;28;20453;-50
2022/06/24 12:04:23;;;;;;;4.35;1.60;;;24.60;71.40;;;;;;4972158;28;20019;-51
2022/06/24 12:06:50;;;;;;;6.03;1.92;;;24.90;68.70;;;;;;4972001;28;20027;-51
2022/06/24 12:09:16;;;;;;;3.00;1.80;;;24.60;68.70;;;;;;4970917;28;20046;-51
2022/06/24 12:11:44;;;;;;;3.60;1.83;;;24.50;69.90;;;;;;4972018;28;20023;-46
2022/06/24 12:14:18;;;;;;;4.53;2.03;;;24.80;69.70;;;;;;4966513;28;20019;-53
2022/06/24 12:17:00;;;;;;;5.53;2.20;;;24.90;71.10;;;;;;4968800;28;20046;-57
2022/06/24 12:19:31;;;;;;;4.07;1.98;;;24.50;68.90;;;;;;4971668;28;20034;-61
2022/06/24 12:22:07;;;;;;;6.65;2.08;;;23.90;71.80;;;;;;4971677;28;20051;-55
2022/06/24 12:24:33;;;;;;;3.88;2.20;;;23.30;72.10;;;;;;4971986;28;20027;-54
2022/06/24 12:27:02;;;;;;;5.63;2.22;;;22.80;76.30;;;;;;4975126;28;20038;-39
2022/06/24 12:29:30;;;;;;;4.35;2.30;;;22.50;77.60;;;;;;4976088;28;20089;-38
2022/06/24 12:31:56;;;;;;;6.83;2.80;;;22.80;79.80;;;;;;4975910;28;20047;-40
2022/06/24 12:34:53;;;;;;;6.20;2.20;;;23.30;78.80;;;;;;4975740;28;20501;-43
2022/06/24 12:37:20;;;;;;;3.55;2.00;;;23.70;76.30;;;;;;4964537;28;20042;-57
2022/06/24 12:39:47;;;;;;;6.97;2.95;;;23.80;73.30;;;;;;4975724;28;20426;-59
2022/06/24 12:42:17;;;;;;;4.15;2.47;;;23.20;74.20;;;;;;4975635;28;20434;-50
2022/06/24 12:44:48;;;;;;;5.65;2.10;;;23.10;76.30;;;;;;4975646;28;20019;-48
2022/06/24 12:53:05;;;;;;;5.95;2.60;;;22.60;77.50;;;;;;4975668;28;20437;-45
2022/06/24 12:55:32;;;;;;;5.55;2.70;;;22.50;79.60;;;;;;4974864;28;20045;-57
2022/06/24 12:57:59;;;;;;;6.22;2.60;;;22.50;78.60;;;;;;4974299;28;20038;-51